This is the latest recevied weather packets stored in our database for station/object W0AKY-13. If no packets are shown the sender has not sent any weather packets the latest 10 day(s).
| Time | Temp. | Humidity | Pressure | Rain* | Wind** | Luminosity | Snow |
|---|---|---|---|---|---|---|---|
| 1788042674 | 33.89° C | 60% | 1011.2 hPa | 0 mm | - | 196 W/m² | - |
| 1788042373 | 33.89° C | 57% | 1011.1 hPa | 0 mm | - | 206 W/m² | - |
| 1788042068 | 33.89° C | 61% | 1011.6 hPa | 0 mm | - | 218 W/m² | - |
| 1788041763 | 34.44° C | 58% | 1011.3 hPa | 0 mm | - | 228 W/m² | - |
| 1788041459 | 34.44° C | 57% | 1011.3 hPa | 0 mm | - | 243 W/m² | - |
| 1788041158 | 33.89° C | 58% | 1011.5 hPa | 0 mm | - | 255 W/m² | - |
| 1788040858 | 33.89° C | 58% | 1011.5 hPa | 0 mm | - | 265 W/m² | - |
| 1788040556 | 34.44° C | 60% | 1011.5 hPa | 0 mm | - | 280 W/m² | - |
| 1788040253 | 34.44° C | 56% | 1011.6 hPa | 0 mm | - | 295 W/m² | - |
| 1788039951 | 33.89° C | 56% | 1011.2 hPa | 0 mm | - | 333 W/m² | - |
| 1788039647 | 33.89° C | 57% | 1011.5 hPa | 0 mm | - | 157 W/m² | - |
| 1788039342 | 33.89° C | 55% | 1011.6 hPa | 0 mm | - | 383 W/m² | - |
| 1788039037 | 33.33° C | 57% | 1011.6 hPa | 0 mm | - | 349 W/m² | - |
| 1788038732 | 33.33° C | 57% | 1011.6 hPa | 0 mm | - | 290 W/m² | - |
| 1788038427 | 32.78° C | 58% | 1011.8 hPa | 0 mm | - | 306 W/m² | - |
| 1788023596 | 29.44° C | 59% | 1014.2 hPa | 0 mm | - | 322 W/m² | - |
| 1788023292 | 29.44° C | 59% | 1014.2 hPa | 0 mm | - | 322 W/m² | - |
| 1788022986 | 29.44° C | 58% | 1014.1 hPa | 0 mm | - | 272 W/m² | - |
| 1788022684 | 29.44° C | 57% | 1014.5 hPa | 0 mm | - | 321 W/m² | - |
| 1788022382 | 30° C | 59% | 1014.5 hPa | 0 mm | - | 322 W/m² | - |
| 1788022082 | 29.44° C | 58% | 1014.4 hPa | 0 mm | - | 385 W/m² | - |
| 1788021777 | 29.44° C | 58% | 1014.5 hPa | 0 mm | - | 301 W/m² | - |
| 1788021475 | 28.89° C | 60% | 1014.6 hPa | 0 mm | - | 484 W/m² | - |
| 1788021174 | 28.33° C | 58% | 1014.6 hPa | 0 mm | - | 538 W/m² | - |
| 1788020865 | 27.78° C | 62% | 1014.8 hPa | 0 mm | - | 430 W/m² | - |
* Rain latest hour (hover to see other rain measurements)
** Current wind speed in m/s (hover to see current wind gust speed)